La Loche, Canada
Current Conditions -  °F | °C
As of 3:00 PM on Friday 24 Oct 2014 (Local Time) from CYVT Reporting Station
Light Rain Light Rain  
Wind Chill: 27°   Ceiling: 1200
Heat Index: 36°   Visibility: 12mi
Dew Point: 30°   Wind: 13mph
Humidity: 81%   Direction: 290°WNW
Pressure: 29.66"   Gusts: 23mph
Location:  56.48°N, 109.43°W
Report Text: CYVT 242100Z 29011G20KT 12SM -RA SCT003 OVC012 02/M01 A2966 RMK ST3SC5 SLP063
Loading
Personal Weather Stations






























Interactive Weather Map
Tropical Storm Tracking
New forecast layout! Learn more

10-Day Weather Forecast

Advertisements
Track Severe Weather on mobile